sensor_id;sensor_type;location;lat;lon;timestamp;P1;durP1;ratioP1;P2;durP2;ratioP2
39888;SDS011;25563;50.844;4.308;2022-12-07T00:01:08;21.52;;;16.38;;
39888;SDS011;25563;50.844;4.308;2022-12-07T00:03:48;16.90;;;15.13;;
39888;SDS011;25563;50.844;4.308;2022-12-07T00:06:16;21.15;;;16.38;;
39888;SDS011;25563;50.844;4.308;2022-12-07T00:08:42;23.50;;;16.80;;
39888;SDS011;25563;50.844;4.308;2022-12-07T00:11:14;20.77;;;16.77;;
39888;SDS011;25563;50.844;4.308;2022-12-07T00:13:44;21.25;;;16.42;;
39888;SDS011;25563;50.844;4.308;2022-12-07T00:16:11;21.20;;;15.32;;
39888;SDS011;25563;50.844;4.308;2022-12-07T00:18:38;29.13;;;17.80;;
39888;SDS011;25563;50.844;4.308;2022-12-07T00:21:06;31.15;;;17.52;;
39888;SDS011;25563;50.844;4.308;2022-12-07T00:23:34;22.77;;;17.08;;
39888;SDS011;25563;50.844;4.308;2022-12-07T00:26:03;28.92;;;17.52;;
39888;SDS011;25563;50.844;4.308;2022-12-07T00:28:38;33.65;;;22.55;;
39888;SDS011;25563;50.844;4.308;2022-12-07T00:31:07;30.98;;;18.90;;
39888;SDS011;25563;50.844;4.308;2022-12-07T00:33:35;28.25;;;19.67;;
39888;SDS011;25563;50.844;4.308;2022-12-07T00:36:03;26.55;;;19.42;;
39888;SDS011;25563;50.844;4.308;2022-12-07T00:38:37;36.63;;;21.05;;
39888;SDS011;25563;50.844;4.308;2022-12-07T00:41:14;30.17;;;19.85;;
39888;SDS011;25563;50.844;4.308;2022-12-07T00:43:42;26.38;;;19.73;;
39888;SDS011;25563;50.844;4.308;2022-12-07T00:46:09;29.55;;;20.00;;
39888;SDS011;25563;50.844;4.308;2022-12-07T00:48:35;34.92;;;20.50;;
39888;SDS011;25563;50.844;4.308;2022-12-07T00:51:01;30.13;;;20.83;;
39888;SDS011;25563;50.844;4.308;2022-12-07T00:53:28;30.50;;;20.38;;
39888;SDS011;25563;50.844;4.308;2022-12-07T00:55:54;35.15;;;21.40;;
39888;SDS011;25563;50.844;4.308;2022-12-07T00:58:21;30.20;;;21.80;;
39888;SDS011;25563;50.844;4.308;2022-12-07T01:00:48;32.85;;;20.65;;
39888;SDS011;25563;50.844;4.308;2022-12-07T01:03:14;34.78;;;21.60;;
39888;SDS011;25563;50.844;4.308;2022-12-07T01:05:51;36.25;;;22.30;;
39888;SDS011;25563;50.844;4.308;2022-12-07T01:08:19;34.75;;;22.73;;
39888;SDS011;25563;50.844;4.308;2022-12-07T01:10:46;37.78;;;23.63;;
39888;SDS011;25563;50.844;4.308;2022-12-07T01:13:12;33.47;;;22.00;;
39888;SDS011;25563;50.844;4.308;2022-12-07T01:15:41;34.47;;;22.73;;
39888;SDS011;25563;50.844;4.308;2022-12-07T01:18:08;47.22;;;24.70;;
39888;SDS011;25563;50.844;4.308;2022-12-07T01:20:34;36.20;;;22.60;;
39888;SDS011;25563;50.844;4.308;2022-12-07T01:23:02;33.75;;;23.38;;
39888;SDS011;25563;50.844;4.308;2022-12-07T01:25:28;37.60;;;23.52;;
39888;SDS011;25563;50.844;4.308;2022-12-07T01:27:54;43.83;;;23.35;;
39888;SDS011;25563;50.844;4.308;2022-12-07T01:30:19;39.17;;;24.00;;
39888;SDS011;25563;50.844;4.308;2022-12-07T01:32:45;41.17;;;24.70;;
39888;SDS011;25563;50.844;4.308;2022-12-07T01:35:11;32.38;;;22.08;;
39888;SDS011;25563;50.844;4.308;2022-12-07T01:37:37;36.65;;;23.85;;
39888;SDS011;25563;50.844;4.308;2022-12-07T01:40:07;37.35;;;22.83;;
39888;SDS011;25563;50.844;4.308;2022-12-07T01:42:33;45.17;;;24.50;;
39888;SDS011;25563;50.844;4.308;2022-12-07T01:47:48;41.15;;;22.77;;
39888;SDS011;25563;50.844;4.308;2022-12-07T01:50:17;31.05;;;23.00;;
39888;SDS011;25563;50.844;4.308;2022-12-07T01:52:44;46.80;;;24.15;;
39888;SDS011;25563;50.844;4.308;2022-12-07T01:55:13;35.75;;;23.80;;
39888;SDS011;25563;50.844;4.308;2022-12-07T01:57:41;39.92;;;24.63;;
39888;SDS011;25563;50.844;4.308;2022-12-07T02:00:12;29.27;;;22.17;;
39888;SDS011;25563;50.844;4.308;2022-12-07T02:02:41;35.22;;;23.58;;
39888;SDS011;25563;50.844;4.308;2022-12-07T02:05:11;37.55;;;22.55;;
39888;SDS011;25563;50.844;4.308;2022-12-07T02:07:39;38.70;;;21.13;;
39888;SDS011;25563;50.844;4.308;2022-12-07T02:10:12;33.15;;;23.42;;
39888;SDS011;25563;50.844;4.308;2022-12-07T02:12:46;30.10;;;21.45;;
39888;SDS011;25563;50.844;4.308;2022-12-07T02:15:14;38.10;;;21.25;;
39888;SDS011;25563;50.844;4.308;2022-12-07T02:29:19;35.95;;;22.27;;
39888;SDS011;25563;50.844;4.308;2022-12-07T02:43:47;39.97;;;22.13;;
39888;SDS011;25563;50.844;4.308;2022-12-07T02:46:20;33.10;;;21.88;;
39888;SDS011;25563;50.844;4.308;2022-12-07T02:48:48;33.40;;;20.83;;
39888;SDS011;25563;50.844;4.308;2022-12-07T02:51:17;30.90;;;21.13;;
39888;SDS011;25563;50.844;4.308;2022-12-07T02:53:44;41.25;;;22.58;;
39888;SDS011;25563;50.844;4.308;2022-12-07T03:01:56;29.20;;;21.23;;
39888;SDS011;25563;50.844;4.308;2022-12-07T03:15:43;41.10;;;23.77;;
39888;SDS011;25563;50.844;4.308;2022-12-07T03:18:25;31.88;;;22.17;;
39888;SDS011;25563;50.844;4.308;2022-12-07T03:20:55;32.95;;;23.17;;
39888;SDS011;25563;50.844;4.308;2022-12-07T03:23:26;32.67;;;21.75;;
39888;SDS011;25563;50.844;4.308;2022-12-07T03:25:55;27.85;;;21.40;;
39888;SDS011;25563;50.844;4.308;2022-12-07T03:28:26;34.25;;;22.35;;
39888;SDS011;25563;50.844;4.308;2022-12-07T03:31:01;39.30;;;22.30;;
39888;SDS011;25563;50.844;4.308;2022-12-07T03:33:48;34.42;;;21.70;;
39888;SDS011;25563;50.844;4.308;2022-12-07T03:39:26;30.85;;;20.05;;
39888;SDS011;25563;50.844;4.308;2022-12-07T03:41:59;29.45;;;19.25;;
39888;SDS011;25563;50.844;4.308;2022-12-07T03:44:27;31.17;;;20.35;;
39888;SDS011;25563;50.844;4.308;2022-12-07T03:47:03;30.45;;;21.65;;
39888;SDS011;25563;50.844;4.308;2022-12-07T03:52:59;24.42;;;18.25;;
39888;SDS011;25563;50.844;4.308;2022-12-07T03:55:37;36.55;;;21.52;;
39888;SDS011;25563;50.844;4.308;2022-12-07T03:58:09;29.95;;;20.40;;
39888;SDS011;25563;50.844;4.308;2022-12-07T04:00:40;29.45;;;20.85;;
39888;SDS011;25563;50.844;4.308;2022-12-07T04:03:07;28.65;;;20.27;;
39888;SDS011;25563;50.844;4.308;2022-12-07T04:05:32;33.33;;;21.85;;
39888;SDS011;25563;50.844;4.308;2022-12-07T04:07:58;37.97;;;22.15;;
39888;SDS011;25563;50.844;4.308;2022-12-07T04:10:25;33.17;;;21.00;;
39888;SDS011;25563;50.844;4.308;2022-12-07T04:12:51;35.15;;;21.08;;
39888;SDS011;25563;50.844;4.308;2022-12-07T04:15:16;30.92;;;21.48;;
39888;SDS011;25563;50.844;4.308;2022-12-07T04:17:42;27.05;;;20.58;;
39888;SDS011;25563;50.844;4.308;2022-12-07T04:20:08;30.38;;;21.60;;
39888;SDS011;25563;50.844;4.308;2022-12-07T04:22:35;37.22;;;22.15;;
39888;SDS011;25563;50.844;4.308;2022-12-07T04:25:02;34.75;;;22.67;;
39888;SDS011;25563;50.844;4.308;2022-12-07T04:27:29;34.17;;;21.08;;
39888;SDS011;25563;50.844;4.308;2022-12-07T04:29:55;34.70;;;21.13;;
39888;SDS011;25563;50.844;4.308;2022-12-07T04:32:21;37.13;;;21.10;;
39888;SDS011;25563;50.844;4.308;2022-12-07T04:34:47;40.33;;;21.38;;
39888;SDS011;25563;50.844;4.308;2022-12-07T04:37:13;32.50;;;20.52;;
39888;SDS011;25563;50.844;4.308;2022-12-07T04:39:40;37.55;;;22.38;;
39888;SDS011;25563;50.844;4.308;2022-12-07T04:42:06;38.28;;;21.85;;
39888;SDS011;25563;50.844;4.308;2022-12-07T04:44:31;34.80;;;22.02;;
39888;SDS011;25563;50.844;4.308;2022-12-07T04:46:57;37.83;;;20.40;;
39888;SDS011;25563;50.844;4.308;2022-12-07T04:49:23;32.38;;;20.67;;
39888;SDS011;25563;50.844;4.308;2022-12-07T04:51:50;31.52;;;20.05;;
39888;SDS011;25563;50.844;4.308;2022-12-07T04:54:16;29.60;;;20.70;;
39888;SDS011;25563;50.844;4.308;2022-12-07T04:56:43;35.95;;;20.38;;
39888;SDS011;25563;50.844;4.308;2022-12-07T04:59:13;25.30;;;18.98;;
39888;SDS011;25563;50.844;4.308;2022-12-07T05:01:40;30.45;;;20.38;;
39888;SDS011;25563;50.844;4.308;2022-12-07T05:04:08;34.88;;;19.70;;
39888;SDS011;25563;50.844;4.308;2022-12-07T05:06:36;34.22;;;19.58;;
39888;SDS011;25563;50.844;4.308;2022-12-07T05:09:02;28.05;;;19.52;;
39888;SDS011;25563;50.844;4.308;2022-12-07T05:11:28;32.22;;;20.95;;
39888;SDS011;25563;50.844;4.308;2022-12-07T05:14:06;36.47;;;21.60;;
39888;SDS011;25563;50.844;4.308;2022-12-07T05:16:38;42.17;;;21.33;;
39888;SDS011;25563;50.844;4.308;2022-12-07T05:19:06;27.17;;;21.27;;
39888;SDS011;25563;50.844;4.308;2022-12-07T05:21:33;33.72;;;20.80;;
39888;SDS011;25563;50.844;4.308;2022-12-07T05:23:59;27.98;;;20.73;;
39888;SDS011;25563;50.844;4.308;2022-12-07T05:26:25;27.60;;;20.35;;
39888;SDS011;25563;50.844;4.308;2022-12-07T05:28:53;29.27;;;20.63;;
39888;SDS011;25563;50.844;4.308;2022-12-07T05:31:20;29.90;;;21.65;;
39888;SDS011;25563;50.844;4.308;2022-12-07T05:33:47;27.52;;;19.75;;
39888;SDS011;25563;50.844;4.308;2022-12-07T05:36:13;29.88;;;19.98;;
39888;SDS011;25563;50.844;4.308;2022-12-07T05:38:39;30.60;;;20.05;;
39888;SDS011;25563;50.844;4.308;2022-12-07T05:41:05;34.20;;;20.10;;
39888;SDS011;25563;50.844;4.308;2022-12-07T05:43:32;31.40;;;20.63;;
39888;SDS011;25563;50.844;4.308;2022-12-07T05:45:58;26.27;;;18.58;;
39888;SDS011;25563;50.844;4.308;2022-12-07T05:48:25;26.23;;;18.55;;
39888;SDS011;25563;50.844;4.308;2022-12-07T05:50:51;32.40;;;19.00;;
39888;SDS011;25563;50.844;4.308;2022-12-07T05:53:18;31.50;;;20.58;;
39888;SDS011;25563;50.844;4.308;2022-12-07T05:55:44;35.95;;;21.38;;
39888;SDS011;25563;50.844;4.308;2022-12-07T05:58:10;29.05;;;20.40;;
39888;SDS011;25563;50.844;4.308;2022-12-07T06:00:54;28.98;;;19.45;;
39888;SDS011;25563;50.844;4.308;2022-12-07T06:03:21;29.55;;;20.38;;
39888;SDS011;25563;50.844;4.308;2022-12-07T06:05:48;35.03;;;21.48;;
39888;SDS011;25563;50.844;4.308;2022-12-07T06:08:14;26.00;;;18.65;;
39888;SDS011;25563;50.844;4.308;2022-12-07T06:10:40;31.10;;;20.20;;
39888;SDS011;25563;50.844;4.308;2022-12-07T06:13:06;34.88;;;20.52;;
39888;SDS011;25563;50.844;4.308;2022-12-07T06:15:35;29.85;;;19.77;;
39888;SDS011;25563;50.844;4.308;2022-12-07T06:18:03;29.95;;;21.00;;
39888;SDS011;25563;50.844;4.308;2022-12-07T06:20:29;33.15;;;22.15;;
39888;SDS011;25563;50.844;4.308;2022-12-07T06:22:55;29.98;;;20.63;;
39888;SDS011;25563;50.844;4.308;2022-12-07T06:25:20;26.27;;;20.77;;
39888;SDS011;25563;50.844;4.308;2022-12-07T06:27:47;32.22;;;20.83;;
39888;SDS011;25563;50.844;4.308;2022-12-07T06:30:12;25.65;;;18.98;;
39888;SDS011;25563;50.844;4.308;2022-12-07T06:32:38;39.78;;;20.50;;
39888;SDS011;25563;50.844;4.308;2022-12-07T06:35:04;30.60;;;19.95;;
39888;SDS011;25563;50.844;4.308;2022-12-07T06:37:30;26.33;;;19.13;;
39888;SDS011;25563;50.844;4.308;2022-12-07T06:39:56;38.35;;;20.15;;
39888;SDS011;25563;50.844;4.308;2022-12-07T06:42:21;23.08;;;19.40;;
39888;SDS011;25563;50.844;4.308;2022-12-07T06:44:47;40.05;;;20.40;;
39888;SDS011;25563;50.844;4.308;2022-12-07T06:47:13;28.63;;;19.35;;
39888;SDS011;25563;50.844;4.308;2022-12-07T06:49:39;28.08;;;20.35;;
39888;SDS011;25563;50.844;4.308;2022-12-07T06:52:05;35.10;;;20.80;;
39888;SDS011;25563;50.844;4.308;2022-12-07T06:54:31;37.42;;;21.00;;
39888;SDS011;25563;50.844;4.308;2022-12-07T06:56:56;27.38;;;19.50;;
39888;SDS011;25563;50.844;4.308;2022-12-07T06:59:28;30.63;;;20.55;;
39888;SDS011;25563;50.844;4.308;2022-12-07T07:01:53;39.20;;;19.52;;
39888;SDS011;25563;50.844;4.308;2022-12-07T07:04:20;27.90;;;20.02;;
39888;SDS011;25563;50.844;4.308;2022-12-07T07:06:47;34.65;;;21.75;;
39888;SDS011;25563;50.844;4.308;2022-12-07T07:09:13;29.35;;;20.70;;
39888;SDS011;25563;50.844;4.308;2022-12-07T07:11:39;34.45;;;19.85;;
39888;SDS011;25563;50.844;4.308;2022-12-07T07:14:05;28.35;;;19.45;;
39888;SDS011;25563;50.844;4.308;2022-12-07T07:16:30;29.63;;;19.63;;
39888;SDS011;25563;50.844;4.308;2022-12-07T07:18:56;30.50;;;17.95;;
39888;SDS011;25563;50.844;4.308;2022-12-07T07:21:23;23.67;;;17.38;;
39888;SDS011;25563;50.844;4.308;2022-12-07T07:23:50;27.90;;;18.42;;
39888;SDS011;25563;50.844;4.308;2022-12-07T07:26:17;26.63;;;18.95;;
39888;SDS011;25563;50.844;4.308;2022-12-07T07:28:42;31.50;;;18.60;;
39888;SDS011;25563;50.844;4.308;2022-12-07T07:31:08;27.77;;;18.77;;
39888;SDS011;25563;50.844;4.308;2022-12-07T07:33:34;27.13;;;18.65;;
39888;SDS011;25563;50.844;4.308;2022-12-07T07:36:00;24.15;;;17.67;;
39888;SDS011;25563;50.844;4.308;2022-12-07T07:38:27;27.27;;;17.95;;
39888;SDS011;25563;50.844;4.308;2022-12-07T07:40:55;27.35;;;18.50;;
39888;SDS011;25563;50.844;4.308;2022-12-07T07:43:21;24.58;;;18.65;;
39888;SDS011;25563;50.844;4.308;2022-12-07T07:45:47;25.45;;;18.75;;
39888;SDS011;25563;50.844;4.308;2022-12-07T07:48:13;25.92;;;19.73;;
39888;SDS011;25563;50.844;4.308;2022-12-07T07:50:39;27.73;;;18.33;;
39888;SDS011;25563;50.844;4.308;2022-12-07T07:53:05;22.55;;;18.27;;
39888;SDS011;25563;50.844;4.308;2022-12-07T07:55:31;30.85;;;19.00;;
39888;SDS011;25563;50.844;4.308;2022-12-07T07:57:56;26.92;;;18.92;;
39888;SDS011;25563;50.844;4.308;2022-12-07T08:00:23;31.55;;;19.75;;
39888;SDS011;25563;50.844;4.308;2022-12-07T08:02:49;29.90;;;19.38;;
39888;SDS011;25563;50.844;4.308;2022-12-07T08:05:15;31.02;;;18.42;;
39888;SDS011;25563;50.844;4.308;2022-12-07T08:07:45;38.50;;;18.50;;
39888;SDS011;25563;50.844;4.308;2022-12-07T08:13:00;27.63;;;19.52;;
39888;SDS011;25563;50.844;4.308;2022-12-07T08:15:44;31.67;;;21.40;;
39888;SDS011;25563;50.844;4.308;2022-12-07T08:18:14;46.90;;;30.35;;
39888;SDS011;25563;50.844;4.308;2022-12-07T08:20:41;38.13;;;20.75;;
39888;SDS011;25563;50.844;4.308;2022-12-07T08:23:08;31.58;;;20.00;;
39888;SDS011;25563;50.844;4.308;2022-12-07T08:25:36;30.08;;;18.98;;
39888;SDS011;25563;50.844;4.308;2022-12-07T08:28:03;26.08;;;19.08;;
39888;SDS011;25563;50.844;4.308;2022-12-07T08:30:29;29.13;;;19.95;;
39888;SDS011;25563;50.844;4.308;2022-12-07T08:32:55;32.00;;;21.35;;
39888;SDS011;25563;50.844;4.308;2022-12-07T08:35:21;33.80;;;20.52;;
39888;SDS011;25563;50.844;4.308;2022-12-07T08:37:47;32.58;;;20.45;;
39888;SDS011;25563;50.844;4.308;2022-12-07T08:40:13;28.23;;;20.45;;
39888;SDS011;25563;50.844;4.308;2022-12-07T08:42:43;27.77;;;20.65;;
39888;SDS011;25563;50.844;4.308;2022-12-07T08:45:18;41.63;;;20.73;;
39888;SDS011;25563;50.844;4.308;2022-12-07T08:47:51;31.83;;;21.15;;
39888;SDS011;25563;50.844;4.308;2022-12-07T08:50:21;29.27;;;18.20;;
39888;SDS011;25563;50.844;4.308;2022-12-07T08:52:48;31.48;;;18.92;;
39888;SDS011;25563;50.844;4.308;2022-12-07T08:55:19;25.73;;;16.67;;
39888;SDS011;25563;50.844;4.308;2022-12-07T08:57:45;21.15;;;15.93;;
39888;SDS011;25563;50.844;4.308;2022-12-07T09:00:13;21.52;;;15.80;;
39888;SDS011;25563;50.844;4.308;2022-12-07T09:02:39;22.42;;;14.48;;
39888;SDS011;25563;50.844;4.308;2022-12-07T09:05:05;21.25;;;15.15;;
39888;SDS011;25563;50.844;4.308;2022-12-07T09:07:32;24.63;;;14.88;;
39888;SDS011;25563;50.844;4.308;2022-12-07T09:09:58;21.50;;;14.10;;
39888;SDS011;25563;50.844;4.308;2022-12-07T09:12:27;23.20;;;13.55;;
39888;SDS011;25563;50.844;4.308;2022-12-07T09:14:52;15.00;;;11.32;;
39888;SDS011;25563;50.844;4.308;2022-12-07T09:17:21;25.00;;;12.43;;
39888;SDS011;25563;50.844;4.308;2022-12-07T09:20:24;19.02;;;12.18;;
39888;SDS011;25563;50.844;4.308;2022-12-07T09:22:55;25.13;;;14.23;;
39888;SDS011;25563;50.844;4.308;2022-12-07T09:25:20;15.82;;;13.40;;
39888;SDS011;25563;50.844;4.308;2022-12-07T09:27:48;24.83;;;13.77;;
39888;SDS011;25563;50.844;4.308;2022-12-07T09:30:24;20.25;;;12.50;;
39888;SDS011;25563;50.844;4.308;2022-12-07T09:32:53;21.02;;;11.98;;
39888;SDS011;25563;50.844;4.308;2022-12-07T09:35:19;18.52;;;13.00;;
39888;SDS011;25563;50.844;4.308;2022-12-07T09:37:45;18.27;;;12.13;;
39888;SDS011;25563;50.844;4.308;2022-12-07T09:40:12;15.60;;;12.20;;
39888;SDS011;25563;50.844;4.308;2022-12-07T09:42:39;11.35;;;10.02;;
39888;SDS011;25563;50.844;4.308;2022-12-07T09:45:17;18.27;;;10.73;;
39888;SDS011;25563;50.844;4.308;2022-12-07T09:47:47;14.85;;;10.50;;
39888;SDS011;25563;50.844;4.308;2022-12-07T09:50:16;12.05;;;9.43;;
39888;SDS011;25563;50.844;4.308;2022-12-07T09:52:52;18.27;;;10.63;;
39888;SDS011;25563;50.844;4.308;2022-12-07T09:55:26;21.70;;;10.60;;
39888;SDS011;25563;50.844;4.308;2022-12-07T09:57:54;20.02;;;11.57;;
39888;SDS011;25563;50.844;4.308;2022-12-07T10:00:21;21.55;;;11.70;;
39888;SDS011;25563;50.844;4.308;2022-12-07T10:05:53;15.85;;;10.35;;
39888;SDS011;25563;50.844;4.308;2022-12-07T10:08:20;16.42;;;9.93;;
39888;SDS011;25563;50.844;4.308;2022-12-07T10:10:48;8.90;;;8.00;;
39888;SDS011;25563;50.844;4.308;2022-12-07T10:13:21;9.98;;;8.98;;
39888;SDS011;25563;50.844;4.308;2022-12-07T10:15:58;14.77;;;9.90;;
39888;SDS011;25563;50.844;4.308;2022-12-07T10:18:26;20.25;;;10.93;;
39888;SDS011;25563;50.844;4.308;2022-12-07T10:21:20;14.73;;;9.30;;
39888;SDS011;25563;50.844;4.308;2022-12-07T10:24:00;18.15;;;9.30;;
39888;SDS011;25563;50.844;4.308;2022-12-07T10:29:14;11.10;;;8.70;;
39888;SDS011;25563;50.844;4.308;2022-12-07T10:31:43;12.68;;;9.05;;
39888;SDS011;25563;50.844;4.308;2022-12-07T10:34:21;18.20;;;8.95;;
39888;SDS011;25563;50.844;4.308;2022-12-07T10:36:54;18.55;;;8.95;;
39888;SDS011;25563;50.844;4.308;2022-12-07T10:39:41;10.90;;;7.55;;
39888;SDS011;25563;50.844;4.308;2022-12-07T10:42:17;13.25;;;7.70;;
39888;SDS011;25563;50.844;4.308;2022-12-07T10:44:44;17.67;;;8.23;;
39888;SDS011;25563;50.844;4.308;2022-12-07T10:47:23;9.15;;;7.50;;
39888;SDS011;25563;50.844;4.308;2022-12-07T10:52:53;14.68;;;7.50;;
39888;SDS011;25563;50.844;4.308;2022-12-07T10:55:46;8.55;;;6.80;;
39888;SDS011;25563;50.844;4.308;2022-12-07T11:00:59;6.30;;;5.35;;
39888;SDS011;25563;50.844;4.308;2022-12-07T11:04:06;8.70;;;6.28;;
39888;SDS011;25563;50.844;4.308;2022-12-07T11:24:17;9.65;;;4.20;;
39888;SDS011;25563;50.844;4.308;2022-12-07T11:32:44;8.32;;;4.65;;
39888;SDS011;25563;50.844;4.308;2022-12-07T11:35:54;7.05;;;4.30;;
39888;SDS011;25563;50.844;4.308;2022-12-07T11:38:20;14.18;;;5.50;;
39888;SDS011;25563;50.844;4.308;2022-12-07T11:40:54;14.82;;;5.13;;
39888;SDS011;25563;50.844;4.308;2022-12-07T11:43:46;10.43;;;4.25;;
39888;SDS011;25563;50.844;4.308;2022-12-07T11:46:42;5.95;;;3.75;;
39888;SDS011;25563;50.844;4.308;2022-12-07T11:56:54;7.43;;;5.63;;
39888;SDS011;25563;50.844;4.308;2022-12-07T11:59:30;7.88;;;5.07;;
39888;SDS011;25563;50.844;4.308;2022-12-07T12:02:10;4.57;;;3.63;;
39888;SDS011;25563;50.844;4.308;2022-12-07T12:07:25;4.72;;;2.58;;
39888;SDS011;25563;50.844;4.308;2022-12-07T12:09:54;5.57;;;2.75;;
39888;SDS011;25563;50.844;4.308;2022-12-07T12:13:01;4.95;;;2.45;;
39888;SDS011;25563;50.844;4.308;2022-12-07T12:21:28;4.07;;;1.98;;
39888;SDS011;25563;50.844;4.308;2022-12-07T12:24:08;6.20;;;1.30;;
39888;SDS011;25563;50.844;4.308;2022-12-07T12:26:48;7.20;;;2.45;;
39888;SDS011;25563;50.844;4.308;2022-12-07T12:29:21;5.15;;;2.08;;
39888;SDS011;25563;50.844;4.308;2022-12-07T12:37:46;4.53;;;3.15;;
39888;SDS011;25563;50.844;4.308;2022-12-07T12:42:46;5.10;;;2.30;;
39888;SDS011;25563;50.844;4.308;2022-12-07T12:51:35;6.95;;;2.13;;
39888;SDS011;25563;50.844;4.308;2022-12-07T13:15:34;4.53;;;2.08;;
39888;SDS011;25563;50.844;4.308;2022-12-07T13:18:04;9.00;;;2.95;;
39888;SDS011;25563;50.844;4.308;2022-12-07T13:26:18;6.10;;;2.15;;
39888;SDS011;25563;50.844;4.308;2022-12-07T13:28:52;18.92;;;2.60;;
39888;SDS011;25563;50.844;4.308;2022-12-07T13:34:34;5.53;;;2.47;;
39888;SDS011;25563;50.844;4.308;2022-12-07T13:39:55;6.13;;;2.80;;
39888;SDS011;25563;50.844;4.308;2022-12-07T13:42:28;6.55;;;2.38;;
39888;SDS011;25563;50.844;4.308;2022-12-07T13:44:56;4.70;;;2.97;;
39888;SDS011;25563;50.844;4.308;2022-12-07T13:47:38;3.72;;;2.60;;
39888;SDS011;25563;50.844;4.308;2022-12-07T13:50:42;4.80;;;2.70;;
39888;SDS011;25563;50.844;4.308;2022-12-07T13:53:01;4.18;;;2.22;;
39888;SDS011;25563;50.844;4.308;2022-12-07T13:55:36;4.47;;;2.75;;
39888;SDS011;25563;50.844;4.308;2022-12-07T13:58:10;8.52;;;2.20;;
39888;SDS011;25563;50.844;4.308;2022-12-07T14:00:37;2.42;;;1.80;;
39888;SDS011;25563;50.844;4.308;2022-12-07T14:05:38;2.45;;;1.77;;
39888;SDS011;25563;50.844;4.308;2022-12-07T14:08:06;7.72;;;1.92;;
39888;SDS011;25563;50.844;4.308;2022-12-07T14:13:28;4.25;;;2.10;;
39888;SDS011;25563;50.844;4.308;2022-12-07T14:15:55;3.00;;;2.03;;
39888;SDS011;25563;50.844;4.308;2022-12-07T14:21:14;6.50;;;2.25;;
39888;SDS011;25563;50.844;4.308;2022-12-07T14:23:43;4.43;;;2.47;;
39888;SDS011;25563;50.844;4.308;2022-12-07T14:26:27;6.70;;;2.67;;
39888;SDS011;25563;50.844;4.308;2022-12-07T14:28:59;4.80;;;2.83;;
39888;SDS011;25563;50.844;4.308;2022-12-07T14:31:45;12.32;;;2.10;;
39888;SDS011;25563;50.844;4.308;2022-12-07T14:34:14;6.47;;;1.90;;
39888;SDS011;25563;50.844;4.308;2022-12-07T14:36:39;4.75;;;1.20;;
39888;SDS011;25563;50.844;4.308;2022-12-07T14:39:05;6.18;;;1.13;;
39888;SDS011;25563;50.844;4.308;2022-12-07T14:41:32;4.07;;;1.13;;
39888;SDS011;25563;50.844;4.308;2022-12-07T14:44:22;5.95;;;1.52;;
39888;SDS011;25563;50.844;4.308;2022-12-07T14:46:51;2.05;;;1.10;;
39888;SDS011;25563;50.844;4.308;2022-12-07T14:49:22;3.80;;;1.48;;
39888;SDS011;25563;50.844;4.308;2022-12-07T14:51:48;2.53;;;1.35;;
39888;SDS011;25563;50.844;4.308;2022-12-07T14:54:15;5.57;;;1.60;;
39888;SDS011;25563;50.844;4.308;2022-12-07T14:56:44;5.45;;;2.22;;
39888;SDS011;25563;50.844;4.308;2022-12-07T14:59:13;5.07;;;1.40;;
39888;SDS011;25563;50.844;4.308;2022-12-07T15:01:40;5.15;;;2.20;;
39888;SDS011;25563;50.844;4.308;2022-12-07T15:04:06;8.18;;;2.05;;
39888;SDS011;25563;50.844;4.308;2022-12-07T15:06:38;2.67;;;1.88;;
39888;SDS011;25563;50.844;4.308;2022-12-07T15:09:10;5.38;;;1.80;;
39888;SDS011;25563;50.844;4.308;2022-12-07T15:11:37;4.50;;;3.10;;
39888;SDS011;25563;50.844;4.308;2022-12-07T15:14:02;6.15;;;2.67;;
39888;SDS011;25563;50.844;4.308;2022-12-07T15:16:36;8.18;;;3.17;;
39888;SDS011;25563;50.844;4.308;2022-12-07T15:19:11;2.85;;;2.30;;
39888;SDS011;25563;50.844;4.308;2022-12-07T15:21:39;9.98;;;3.05;;
39888;SDS011;25563;50.844;4.308;2022-12-07T15:24:10;3.53;;;2.50;;
39888;SDS011;25563;50.844;4.308;2022-12-07T15:26:38;7.18;;;3.25;;
39888;SDS011;25563;50.844;4.308;2022-12-07T15:29:05;4.60;;;4.10;;
39888;SDS011;25563;50.844;4.308;2022-12-07T15:31:41;4.75;;;3.40;;
39888;SDS011;25563;50.844;4.308;2022-12-07T15:34:08;7.85;;;3.70;;
39888;SDS011;25563;50.844;4.308;2022-12-07T15:36:35;9.05;;;3.72;;
39888;SDS011;25563;50.844;4.308;2022-12-07T15:39:03;18.20;;;5.10;;
39888;SDS011;25563;50.844;4.308;2022-12-07T15:41:29;8.48;;;4.47;;
39888;SDS011;25563;50.844;4.308;2022-12-07T15:44:02;8.68;;;3.83;;
39888;SDS011;25563;50.844;4.308;2022-12-07T15:46:51;9.25;;;4.38;;
39888;SDS011;25563;50.844;4.308;2022-12-07T15:49:19;8.68;;;4.95;;
39888;SDS011;25563;50.844;4.308;2022-12-07T15:51:45;9.30;;;4.68;;
39888;SDS011;25563;50.844;4.308;2022-12-07T15:54:16;6.95;;;5.10;;
39888;SDS011;25563;50.844;4.308;2022-12-07T15:56:45;7.88;;;6.00;;
39888;SDS011;25563;50.844;4.308;2022-12-07T15:59:14;9.30;;;4.90;;
39888;SDS011;25563;50.844;4.308;2022-12-07T16:01:41;8.63;;;4.70;;
39888;SDS011;25563;50.844;4.308;2022-12-07T16:04:07;10.35;;;5.53;;
39888;SDS011;25563;50.844;4.308;2022-12-07T16:06:33;5.88;;;4.88;;
39888;SDS011;25563;50.844;4.308;2022-12-07T16:09:00;6.03;;;4.22;;
39888;SDS011;25563;50.844;4.308;2022-12-07T16:11:26;9.40;;;5.40;;
39888;SDS011;25563;50.844;4.308;2022-12-07T16:13:52;12.23;;;5.47;;
39888;SDS011;25563;50.844;4.308;2022-12-07T16:16:18;12.10;;;5.68;;
39888;SDS011;25563;50.844;4.308;2022-12-07T16:18:47;9.13;;;5.15;;
39888;SDS011;25563;50.844;4.308;2022-12-07T16:21:13;14.43;;;5.63;;
39888;SDS011;25563;50.844;4.308;2022-12-07T16:23:46;10.73;;;5.78;;
39888;SDS011;25563;50.844;4.308;2022-12-07T16:26:22;12.30;;;6.13;;
39888;SDS011;25563;50.844;4.308;2022-12-07T16:28:48;10.40;;;6.10;;
39888;SDS011;25563;50.844;4.308;2022-12-07T16:31:16;12.98;;;6.88;;
39888;SDS011;25563;50.844;4.308;2022-12-07T16:33:44;8.88;;;6.78;;
39888;SDS011;25563;50.844;4.308;2022-12-07T16:36:10;11.18;;;7.80;;
39888;SDS011;25563;50.844;4.308;2022-12-07T16:38:41;8.80;;;6.93;;
39888;SDS011;25563;50.844;4.308;2022-12-07T16:41:10;11.57;;;6.55;;
39888;SDS011;25563;50.844;4.308;2022-12-07T16:43:41;10.02;;;6.85;;
39888;SDS011;25563;50.844;4.308;2022-12-07T16:46:07;10.25;;;7.80;;
39888;SDS011;25563;50.844;4.308;2022-12-07T16:48:37;11.80;;;7.53;;
39888;SDS011;25563;50.844;4.308;2022-12-07T16:51:04;8.27;;;6.93;;
39888;SDS011;25563;50.844;4.308;2022-12-07T16:53:34;10.40;;;7.13;;
39888;SDS011;25563;50.844;4.308;2022-12-07T16:58:27;16.33;;;7.68;;
39888;SDS011;25563;50.844;4.308;2022-12-07T17:00:54;11.85;;;9.10;;
39888;SDS011;25563;50.844;4.308;2022-12-07T17:03:20;16.17;;;9.02;;
39888;SDS011;25563;50.844;4.308;2022-12-07T17:05:46;15.85;;;7.22;;
39888;SDS011;25563;50.844;4.308;2022-12-07T17:08:14;13.65;;;8.00;;
39888;SDS011;25563;50.844;4.308;2022-12-07T17:10:41;12.10;;;9.90;;
39888;SDS011;25563;50.844;4.308;2022-12-07T17:13:09;11.10;;;9.05;;
39888;SDS011;25563;50.844;4.308;2022-12-07T17:16:02;14.52;;;12.38;;
39888;SDS011;25563;50.844;4.308;2022-12-07T17:18:38;12.05;;;10.82;;
39888;SDS011;25563;50.844;4.308;2022-12-07T17:21:06;12.02;;;8.25;;
39888;SDS011;25563;50.844;4.308;2022-12-07T17:23:37;9.05;;;8.15;;
39888;SDS011;25563;50.844;4.308;2022-12-07T17:26:04;16.02;;;8.80;;